Time;durP1;ratioP1;P1;durP2;ratioP2;P2;SDS_P1;SDS_P2;PMS_P1;PMS_P2;Temp;Humidity;BMP_temperature;BMP_pressure;BME280_temperature;BME280_humidity;BME280_pressure;Samples;Min_cycle;Max_cycle;Signal;HPM_P1;HPM_P2
2022/02/20 00:00:46;;;;;;;5.25;1.33;;;6.70;99.90;;;;;;5039581;28;20478;-60
2022/02/20 00:03:12;;;;;;;8.38;1.10;;;6.70;99.90;;;;;;5044254;28;20033;-60
2022/02/20 00:05:38;;;;;;;8.50;1.50;;;6.70;99.90;;;;;;5046679;28;20467;-60
2022/02/20 00:08:04;;;;;;;8.07;1.20;;;6.80;99.90;;;;;;5049143;28;20021;-59
2022/02/20 00:10:30;;;;;;;11.02;1.80;;;7.00;99.90;;;;;;5041581;28;20025;-60
2022/02/20 00:12:57;;;;;;;10.32;1.90;;;7.20;99.90;;;;;;5043212;28;20021;-60
2022/02/20 00:15:24;;;;;;;9.50;2.00;;;7.20;99.90;;;;;;5042794;28;20028;-60
2022/02/20 00:17:51;;;;;;;5.95;1.60;;;7.30;99.90;;;;;;5048697;28;20049;-60
2022/02/20 00:20:20;;;;;;;10.50;1.60;;;7.40;99.90;;;;;;5045040;28;20098;-57
2022/02/20 00:22:45;;;;;;;12.57;2.08;;;7.50;99.90;;;;;;5047484;28;20131;-60
2022/02/20 00:25:11;;;;;;;11.80;2.28;;;7.50;99.90;;;;;;5044611;28;20028;-60
2022/02/20 00:27:37;;;;;;;13.32;3.15;;;7.50;99.90;;;;;;5044847;28;20082;-60
2022/02/20 00:30:04;;;;;;;12.35;2.17;;;7.50;99.90;;;;;;5044654;28;20092;-60
2022/02/20 00:32:29;;;;;;;12.88;3.55;;;7.50;99.90;;;;;;5046428;28;20029;-60
2022/02/20 00:34:55;;;;;;;7.72;1.75;;;7.50;99.90;;;;;;5042019;28;20029;-59
2022/02/20 00:37:20;;;;;;;15.63;1.98;;;7.60;99.90;;;;;;5050485;28;20399;-60
2022/02/20 00:39:46;;;;;;;15.10;3.88;;;7.60;99.90;;;;;;5045153;28;20478;-60
2022/02/20 00:42:12;;;;;;;14.40;2.40;;;7.60;99.90;;;;;;5047630;28;20483;-61
2022/02/20 00:44:37;;;;;;;15.07;2.95;;;7.60;99.90;;;;;;5043906;28;20111;-60
2022/02/20 00:47:03;;;;;;;16.08;2.60;;;7.60;99.90;;;;;;5049209;28;20513;-61
2022/02/20 00:49:29;;;;;;;13.38;2.60;;;7.60;99.90;;;;;;5047459;28;20021;-61
2022/02/20 00:51:54;;;;;;;13.60;2.55;;;7.60;99.90;;;;;;5052663;28;20017;-60
2022/02/20 00:54:20;;;;;;;23.25;3.67;;;7.60;99.90;;;;;;5049686;28;20025;-61
2022/02/20 00:56:45;;;;;;;24.25;2.78;;;7.60;99.90;;;;;;5049813;28;20056;-61
2022/02/20 00:59:11;;;;;;;17.33;2.55;;;7.60;99.90;;;;;;5043777;28;20064;-60
2022/02/20 01:01:37;;;;;;;13.65;2.58;;;7.70;99.90;;;;;;5046524;28;20037;-61
2022/02/20 01:04:03;;;;;;;16.17;2.50;;;7.60;99.90;;;;;;5048044;28;20113;-60
2022/02/20 01:06:29;;;;;;;14.93;2.50;;;7.60;99.90;;;;;;5049145;28;20025;-61
2022/02/20 01:08:54;;;;;;;12.98;2.30;;;7.60;99.90;;;;;;5041572;28;20083;-61
2022/02/20 01:11:20;;;;;;;12.73;2.40;;;7.70;99.90;;;;;;5034055;28;20132;-60
2022/02/20 01:13:47;;;;;;;12.63;2.92;;;7.60;99.90;;;;;;5029660;28;20746;-60
2022/02/20 01:16:14;;;;;;;11.95;2.42;;;7.60;99.90;;;;;;5034353;28;20785;-60
2022/02/20 01:18:40;;;;;;;12.65;1.95;;;7.60;99.90;;;;;;5040819;28;20025;-60
2022/02/20 01:21:06;;;;;;;10.77;1.90;;;7.50;99.90;;;;;;5038946;28;20029;-60
2022/02/20 01:23:31;;;;;;;9.98;1.88;;;7.50;99.90;;;;;;5036110;28;20028;-61
2022/02/20 01:25:57;;;;;;;10.90;1.92;;;7.40;99.90;;;;;;5038546;28;20104;-60
2022/02/20 01:28:23;;;;;;;14.32;1.83;;;7.40;99.90;;;;;;5041744;28;20091;-61
2022/02/20 01:30:49;;;;;;;10.23;1.75;;;7.30;99.90;;;;;;5042887;28;20037;-59
2022/02/20 01:33:14;;;;;;;11.27;1.90;;;7.30;99.90;;;;;;5047483;28;20035;-60
2022/02/20 01:35:41;;;;;;;2.88;1.63;;;7.30;99.90;;;;;;5050553;28;20394;-58
2022/02/20 01:38:06;;;;;;;11.75;2.15;;;7.20;99.90;;;;;;5037050;28;20025;-61
2022/02/20 01:40:33;;;;;;;19.38;4.28;;;7.20;99.90;;;;;;5001017;28;20033;-61
2022/02/20 01:42:59;;;;;;;5.97;1.30;;;7.20;99.90;;;;;;5042806;28;20033;-61
2022/02/20 01:45:25;;;;;;;9.85;1.50;;;7.10;99.90;;;;;;5041491;28;20395;-60
2022/02/20 01:47:51;;;;;;;7.40;1.55;;;7.10;99.90;;;;;;5044845;28;20033;-61
2022/02/20 01:50:17;;;;;;;9.10;2.03;;;7.00;99.90;;;;;;5044068;28;20049;-59
2022/02/20 01:52:43;;;;;;;11.57;2.05;;;6.90;99.90;;;;;;5045247;28;20025;-60
2022/02/20 01:55:10;;;;;;;7.18;1.83;;;6.80;99.90;;;;;;5049792;28;20108;-61
2022/02/20 01:57:41;;;;;;;7.65;2.33;;;6.70;99.90;;;;;;5040721;28;20037;-61
2022/02/20 02:00:13;;;;;;;7.68;1.52;;;6.60;99.90;;;;;;5049019;28;20029;-60
2022/02/20 02:02:39;;;;;;;8.27;2.40;;;6.50;99.90;;;;;;5046275;28;20116;-60
2022/02/20 02:05:05;;;;;;;7.65;1.58;;;6.40;99.90;;;;;;5043961;28;20021;-60
2022/02/20 02:07:31;;;;;;;11.23;2.03;;;6.30;99.90;;;;;;5048523;28;20522;-60
2022/02/20 02:09:56;;;;;;;11.40;1.52;;;6.20;99.90;;;;;;5039255;28;20025;-60
2022/02/20 02:12:23;;;;;;;6.78;1.90;;;6.10;99.90;;;;;;5032943;28;20038;-60
2022/02/20 02:15:09;;;;;;;6.63;1.67;;;6.00;99.90;;;;;;5050588;28;20566;-59
2022/02/20 02:17:35;;;;;;;8.38;1.88;;;6.00;99.90;;;;;;5050446;28;20768;-60
2022/02/20 02:20:02;;;;;;;8.88;1.80;;;6.00;99.90;;;;;;5038732;28;20029;-61
2022/02/20 02:22:29;;;;;;;12.50;2.38;;;5.90;99.90;;;;;;5040189;28;20021;-60
2022/02/20 02:24:57;;;;;;;11.20;4.38;;;5.90;99.90;;;;;;5031581;28;20037;-60
2022/02/20 02:27:22;;;;;;;13.20;2.97;;;5.90;99.90;;;;;;5041271;28;20106;-60
2022/02/20 02:29:49;;;;;;;11.20;2.30;;;5.90;99.90;;;;;;5050239;28;20529;-61
2022/02/20 02:32:15;;;;;;;7.63;2.03;;;5.90;99.90;;;;;;5043988;28;20107;-60
2022/02/20 02:34:43;;;;;;;10.25;2.35;;;5.80;99.90;;;;;;5031834;28;20029;-59
2022/02/20 02:37:09;;;;;;;7.15;3.03;;;5.80;99.90;;;;;;5036543;28;20040;-61
2022/02/20 02:39:35;;;;;;;12.02;2.40;;;5.70;99.90;;;;;;5051024;28;20025;-59
2022/02/20 02:42:01;;;;;;;8.60;2.63;;;5.70;99.90;;;;;;5037390;28;20040;-61
2022/02/20 02:44:27;;;;;;;11.63;2.95;;;5.70;99.90;;;;;;5049589;28;20572;-60
2022/02/20 02:46:52;;;;;;;11.75;3.85;;;5.70;99.90;;;;;;5045296;28;20036;-60
2022/02/20 02:49:18;;;;;;;12.10;2.60;;;5.70;99.90;;;;;;5034140;28;20416;-60
2022/02/20 02:51:44;;;;;;;10.05;3.42;;;5.60;99.90;;;;;;5032793;28;20091;-60
2022/02/20 02:54:12;;;;;;;13.57;2.90;;;5.60;99.90;;;;;;5041469;28;20103;-61
2022/02/20 02:56:39;;;;;;;7.95;3.05;;;5.60;99.90;;;;;;5041128;28;20727;-60
2022/02/20 02:59:05;;;;;;;8.13;3.13;;;5.60;99.90;;;;;;5039061;28;20571;-60
2022/02/20 03:01:31;;;;;;;15.48;3.17;;;5.60;99.90;;;;;;5020343;28;20065;-60
2022/02/20 03:03:57;;;;;;;3.95;2.65;;;5.50;99.90;;;;;;5040615;28;20068;-58
2022/02/20 03:06:23;;;;;;;11.15;2.45;;;5.50;99.90;;;;;;5036462;28;20049;-61
2022/02/20 03:08:50;;;;;;;11.73;3.38;;;5.40;99.90;;;;;;5030787;28;20050;-60
2022/02/20 03:11:15;;;;;;;7.72;3.70;;;5.40;99.90;;;;;;5035833;28;20546;-61
2022/02/20 03:13:41;;;;;;;6.32;3.10;;;5.30;99.90;;;;;;5039520;28;20029;-60
2022/02/20 03:16:07;;;;;;;13.98;2.85;;;5.30;99.90;;;;;;5044579;28;20079;-61
2022/02/20 03:18:32;;;;;;;11.35;3.47;;;5.30;99.90;;;;;;5041066;28;20613;-60
2022/02/20 03:20:59;;;;;;;12.95;3.38;;;5.20;99.90;;;;;;5037423;28;20064;-61
2022/02/20 03:23:25;;;;;;;13.13;3.85;;;5.20;99.90;;;;;;5036942;28;20028;-60
2022/02/20 03:25:51;;;;;;;13.95;3.72;;;5.20;99.90;;;;;;5037264;28;20024;-60
2022/02/20 03:28:17;;;;;;;19.52;3.72;;;5.20;99.90;;;;;;5034800;28;20569;-61
2022/02/20 03:30:43;;;;;;;11.48;3.50;;;5.20;99.90;;;;;;5035960;28;20032;-61
2022/02/20 03:33:09;;;;;;;8.13;4.18;;;5.20;99.90;;;;;;5038328;28;20033;-60
2022/02/20 03:35:34;;;;;;;10.95;3.33;;;5.20;99.90;;;;;;5031279;28;20372;-60
2022/02/20 03:38:00;;;;;;;8.48;3.28;;;5.10;99.90;;;;;;5044104;28;20083;-59
2022/02/20 03:40:26;;;;;;;10.63;2.90;;;5.10;99.90;;;;;;5040161;28;20062;-57
2022/02/20 03:42:51;;;;;;;19.20;4.28;;;5.10;99.90;;;;;;5046194;28;20029;-60
2022/02/20 03:45:18;;;;;;;14.23;4.60;;;5.00;99.90;;;;;;5037836;28;20146;-60
2022/02/20 03:47:44;;;;;;;11.85;3.83;;;5.00;99.90;;;;;;5033157;28;20049;-59
2022/02/20 03:50:10;;;;;;;10.85;4.60;;;5.00;99.90;;;;;;5039073;28;20457;-59
2022/02/20 03:52:37;;;;;;;11.85;3.85;;;5.00;99.90;;;;;;5044665;28;20092;-60
2022/02/20 03:55:05;;;;;;;11.13;4.10;;;5.00;99.90;;;;;;5030119;28;20114;-60
2022/02/20 03:57:34;;;;;;;21.88;5.40;;;5.00;99.90;;;;;;5040050;28;20045;-60
2022/02/20 04:00:00;;;;;;;13.27;3.83;;;5.00;99.90;;;;;;5031960;28;20487;-60
2022/02/20 04:02:30;;;;;;;9.68;3.80;;;5.00;99.90;;;;;;5020713;28;20033;-60
2022/02/20 04:04:57;;;;;;;12.02;3.75;;;5.00;99.90;;;;;;5032998;28;20060;-60
2022/02/20 04:07:23;;;;;;;14.48;4.20;;;5.00;99.90;;;;;;5045657;28;20028;-60
2022/02/20 04:09:49;;;;;;;10.32;3.88;;;5.00;99.90;;;;;;5049226;28;20111;-60
2022/02/20 04:12:15;;;;;;;10.15;4.10;;;5.00;99.90;;;;;;5034497;28;20382;-59
2022/02/20 04:14:40;;;;;;;6.32;3.63;;;5.00;99.90;;;;;;5038254;28;20043;-59
2022/02/20 04:17:06;;;;;;;8.05;3.78;;;5.00;99.90;;;;;;5038790;28;20402;-59
2022/02/20 04:19:31;;;;;;;10.40;4.70;;;5.00;99.90;;;;;;5043636;28;20399;-60
2022/02/20 04:21:57;;;;;;;14.73;4.45;;;5.00;99.90;;;;;;5064399;28;20051;-60
2022/02/20 04:24:22;;;;;;;13.63;4.47;;;5.00;99.90;;;;;;5046206;28;20551;-59
2022/02/20 04:26:48;;;;;;;13.85;4.47;;;5.00;99.90;;;;;;5038162;28;20078;-59
2022/02/20 04:29:15;;;;;;;17.00;6.68;;;5.00;99.90;;;;;;5041222;28;20108;-60
2022/02/20 04:31:41;;;;;;;13.55;4.45;;;4.90;99.90;;;;;;5037451;28;20028;-60
2022/02/20 04:34:07;;;;;;;16.48;4.80;;;4.90;99.90;;;;;;5044141;28;20037;-60
2022/02/20 04:36:35;;;;;;;13.57;4.65;;;4.80;99.90;;;;;;5046981;28;20056;-58
2022/02/20 04:39:03;;;;;;;12.52;4.18;;;4.80;99.90;;;;;;5039313;28;20409;-61
2022/02/20 04:41:29;;;;;;;18.50;4.82;;;4.60;99.90;;;;;;5050341;28;20429;-61
2022/02/20 04:43:55;;;;;;;9.68;4.65;;;4.50;99.90;;;;;;5045237;28;20053;-61
2022/02/20 04:46:20;;;;;;;12.93;4.30;;;4.40;99.90;;;;;;5043550;28;20047;-59
2022/02/20 04:48:46;;;;;;;11.52;4.97;;;4.20;99.90;;;;;;5041934;28;20059;-60
2022/02/20 04:51:11;;;;;;;13.55;5.90;;;4.10;99.90;;;;;;5040768;28;20676;-57
2022/02/20 04:53:37;;;;;;;16.38;4.60;;;4.00;99.90;;;;;;5040245;28;20033;-60
2022/02/20 04:56:03;;;;;;;16.58;4.95;;;3.90;99.90;;;;;;5047495;28;20025;-60
2022/02/20 04:58:29;;;;;;;15.00;4.88;;;3.80;99.90;;;;;;5043384;28;20028;-61
2022/02/20 05:00:55;;;;;;;12.13;5.22;;;3.70;99.90;;;;;;5039995;28;20025;-61
2022/02/20 05:03:20;;;;;;;19.50;5.15;;;3.70;99.90;;;;;;5027028;28;20071;-61
2022/02/20 05:05:46;;;;;;;10.07;4.57;;;3.60;99.90;;;;;;5047091;28;20484;-60
2022/02/20 05:08:11;;;;;;;13.68;4.53;;;3.50;99.90;;;;;;5033641;28;20036;-60
2022/02/20 05:10:37;;;;;;;17.98;5.82;;;3.50;99.90;;;;;;5035512;28;20090;-60
2022/02/20 05:13:02;;;;;;;15.32;5.40;;;3.40;99.90;;;;;;5042862;28;20038;-61
2022/02/20 05:15:28;;;;;;;19.08;6.53;;;3.40;99.90;;;;;;5040770;28;20025;-60
2022/02/20 05:17:53;;;;;;;10.45;4.68;;;3.40;99.90;;;;;;5043216;28;20029;-60
2022/02/20 05:20:19;;;;;;;12.85;5.00;;;3.40;99.90;;;;;;5045679;28;20034;-60
2022/02/20 05:22:45;;;;;;;11.68;4.95;;;3.50;99.90;;;;;;5041562;28;20032;-60
2022/02/20 05:25:11;;;;;;;12.50;5.68;;;3.60;99.90;;;;;;5043583;28;20435;-62
2022/02/20 05:27:36;;;;;;;18.17;5.95;;;3.60;99.90;;;;;;5044178;28;20106;-61
2022/02/20 05:30:03;;;;;;;21.73;7.40;;;3.70;99.90;;;;;;5036605;28;20040;-61
2022/02/20 05:32:28;;;;;;;15.70;5.18;;;3.80;99.90;;;;;;5040443;28;20216;-61
2022/02/20 05:34:56;;;;;;;16.45;5.47;;;3.80;99.90;;;;;;5043548;28;20029;-61
2022/02/20 05:37:23;;;;;;;14.52;5.28;;;3.90;99.90;;;;;;5036285;28;20057;-59
2022/02/20 05:39:49;;;;;;;15.38;5.30;;;4.00;99.90;;;;;;5041599;28;20441;-61
2022/02/20 05:42:15;;;;;;;16.55;4.95;;;4.00;99.90;;;;;;5042769;28;20109;-60
2022/02/20 05:44:40;;;;;;;13.60;5.38;;;4.00;99.90;;;;;;5043431;28;20037;-60
2022/02/20 05:47:06;;;;;;;10.77;4.70;;;4.10;99.90;;;;;;5041390;28;20037;-61
2022/02/20 05:49:31;;;;;;;13.68;4.55;;;4.10;99.90;;;;;;5035521;28;20029;-59
2022/02/20 05:51:57;;;;;;;13.52;4.00;;;4.20;99.90;;;;;;5045852;28;20044;-60
2022/02/20 05:54:23;;;;;;;12.95;4.60;;;4.20;99.90;;;;;;5039766;28;20494;-61
2022/02/20 05:56:49;;;;;;;11.00;4.50;;;4.20;99.90;;;;;;5050501;28;20033;-60
2022/02/20 05:59:15;;;;;;;11.27;4.40;;;4.30;99.90;;;;;;5040608;28;20037;-61
2022/02/20 06:01:41;;;;;;;10.75;4.07;;;4.30;99.90;;;;;;5018589;28;20384;-61
2022/02/20 06:04:07;;;;;;;11.68;3.42;;;4.30;99.90;;;;;;5023888;28;20052;-61
2022/02/20 06:06:33;;;;;;;10.02;4.50;;;4.40;99.90;;;;;;5015503;28;20026;-61
2022/02/20 06:08:59;;;;;;;11.85;3.83;;;4.40;99.90;;;;;;5024356;28;20026;-60
2022/02/20 06:11:25;;;;;;;11.32;4.22;;;4.40;99.90;;;;;;5021342;28;20505;-60
2022/02/20 06:13:51;;;;;;;11.68;3.83;;;4.50;99.90;;;;;;5012583;28;20084;-58
2022/02/20 06:16:17;;;;;;;13.82;4.15;;;4.50;99.90;;;;;;5023633;28;20064;-60
2022/02/20 06:18:42;;;;;;;11.25;3.35;;;4.50;99.90;;;;;;5016288;28;20060;-57
2022/02/20 06:21:08;;;;;;;15.95;3.80;;;4.60;99.90;;;;;;5021350;28;20404;-61
2022/02/20 06:23:33;;;;;;;13.15;3.75;;;4.70;99.90;;;;;;5025767;28;20026;-61
2022/02/20 06:26:00;;;;;;;12.63;3.83;;;4.70;99.90;;;;;;5019485;28;20026;-61
2022/02/20 06:28:26;;;;;;;14.77;3.25;;;4.70;99.90;;;;;;5016741;28;20060;-60
2022/02/20 06:30:52;;;;;;;12.13;3.28;;;4.70;99.90;;;;;;5017825;28;20026;-61
2022/02/20 06:33:17;;;;;;;24.52;5.32;;;4.70;99.90;;;;;;5019445;28;20518;-61
2022/02/20 06:35:43;;;;;;;10.98;2.85;;;4.70;99.90;;;;;;5021739;28;20127;-61
2022/02/20 06:38:08;;;;;;;12.23;3.50;;;4.70;99.90;;;;;;5024489;28;20025;-61
2022/02/20 06:40:34;;;;;;;27.58;8.15;;;4.80;99.90;;;;;;5016287;28;20025;-59
2022/02/20 06:43:00;;;;;;;24.70;7.75;;;4.80;99.90;;;;;;5012188;28;20030;-61
2022/02/20 06:45:26;;;;;;;69.28;34.17;;;4.80;99.90;;;;;;5020340;28;20034;-61
2022/02/20 06:47:52;;;;;;;56.95;24.02;;;4.80;99.90;;;;;;5019952;28;20032;-61
2022/02/20 06:50:17;;;;;;;41.90;16.20;;;4.80;99.90;;;;;;5035513;28;20057;-61
2022/02/20 06:52:44;;;;;;;100.75;44.10;;;4.90;99.90;;;;;;5036193;28;20305;-61
2022/02/20 06:55:13;;;;;;;112.45;50.17;;;4.90;99.90;;;;;;5025609;28;20025;-60
2022/02/20 06:57:40;;;;;;;145.82;57.25;;;5.00;99.90;;;;;;5014245;28;20018;-60
2022/02/20 07:00:10;;;;;;;91.03;33.88;;;5.10;99.90;;;;;;5016554;28;20535;-61
2022/02/20 07:02:36;;;;;;;74.13;38.97;;;5.10;99.90;;;;;;5001826;28;20050;-59
2022/02/20 07:05:02;;;;;;;30.85;6.60;;;5.20;99.90;;;;;;5017889;28;20486;-61
2022/02/20 07:07:28;;;;;;;18.85;5.05;;;5.20;99.90;;;;;;5023725;28;20033;-61
2022/02/20 07:09:53;;;;;;;13.25;3.63;;;5.30;99.90;;;;;;5018412;28;20052;-61
2022/02/20 07:12:19;;;;;;;14.52;2.92;;;5.30;99.90;;;;;;5018146;28;20470;-61
2022/02/20 07:14:44;;;;;;;26.48;5.28;;;5.40;99.90;;;;;;5012276;28;20057;-61
2022/02/20 07:17:10;;;;;;;17.80;4.28;;;5.40;99.90;;;;;;5024946;28;20095;-61
2022/02/20 07:19:35;;;;;;;16.65;3.53;;;5.50;99.90;;;;;;5017172;28;20046;-60
2022/02/20 07:22:01;;;;;;;18.27;3.17;;;5.50;99.90;;;;;;5020824;28;20029;-61
2022/02/20 07:24:28;;;;;;;22.35;2.88;;;5.50;99.90;;;;;;5020791;28;20588;-60
2022/02/20 07:26:54;;;;;;;16.02;2.70;;;5.60;99.90;;;;;;5024108;28;20057;-60
2022/02/20 07:29:20;;;;;;;12.77;3.30;;;5.50;99.90;;;;;;5011766;28;20038;-61
2022/02/20 07:31:46;;;;;;;20.15;3.80;;;5.60;99.90;;;;;;5024412;28;20079;-59
2022/02/20 07:34:11;;;;;;;16.75;4.60;;;5.60;99.90;;;;;;5019468;28;20080;-60
2022/02/20 07:36:41;;;;;;;31.13;4.13;;;5.70;99.90;;;;;;5015619;28;20124;-60
2022/02/20 07:39:07;;;;;;;27.90;7.15;;;5.70;99.90;;;;;;5010005;28;20582;-60
2022/02/20 07:41:33;;;;;;;32.80;8.40;;;5.70;99.90;;;;;;5015521;28;20064;-60
2022/02/20 07:43:59;;;;;;;36.35;11.50;;;5.80;99.90;;;;;;5016998;28;20062;-61
2022/02/20 07:46:25;;;;;;;27.50;7.93;;;5.80;99.90;;;;;;5013644;28;20033;-60
2022/02/20 07:48:53;;;;;;;29.67;5.13;;;5.90;99.90;;;;;;5018362;28;20032;-59
2022/02/20 07:51:19;;;;;;;33.90;8.85;;;5.90;99.90;;;;;;5010912;28;20391;-60
2022/02/20 07:53:45;;;;;;;33.47;9.90;;;5.90;99.90;;;;;;5016936;28;20029;-57
2022/02/20 07:56:12;;;;;;;31.67;7.78;;;6.00;99.90;;;;;;5018822;28;20114;-57
2022/02/20 07:58:37;;;;;;;26.10;4.22;;;6.00;99.90;;;;;;5019392;28;20096;-60
2022/02/20 08:01:06;;;;;;;25.67;5.68;;;6.10;99.90;;;;;;5019055;28;20037;-60
2022/02/20 08:03:32;;;;;;;25.98;5.68;;;6.10;99.90;;;;;;5001422;28;20057;-58
2022/02/20 08:05:59;;;;;;;25.52;6.72;;;6.10;99.90;;;;;;5012681;28;20026;-61
2022/02/20 08:08:25;;;;;;;38.13;14.05;;;6.20;99.90;;;;;;5019032;28;20040;-61
2022/02/20 08:10:51;;;;;;;28.23;6.82;;;6.20;99.90;;;;;;5015342;28;20030;-64
2022/02/20 08:13:16;;;;;;;42.30;13.13;;;6.20;99.90;;;;;;5023741;28;20069;-59
2022/02/20 08:15:42;;;;;;;35.35;8.27;;;6.20;99.90;;;;;;5023513;28;20040;-54
2022/02/20 08:18:07;;;;;;;42.10;15.55;;;6.30;99.90;;;;;;5016339;28;20488;-61
2022/02/20 08:20:33;;;;;;;25.27;4.07;;;6.30;99.90;;;;;;5022761;28;20530;-61
2022/02/20 08:22:58;;;;;;;18.30;6.18;;;6.30;99.90;;;;;;5017098;28;20043;-61
2022/02/20 08:25:24;;;;;;;40.67;14.05;;;6.30;99.90;;;;;;5010769;28;20061;-60
2022/02/20 08:27:50;;;;;;;32.55;9.35;;;6.30;99.90;;;;;;5020422;28;20032;-59
2022/02/20 08:30:16;;;;;;;24.58;9.77;;;6.30;99.90;;;;;;5016493;28;20036;-60
2022/02/20 08:32:42;;;;;;;40.50;19.30;;;6.40;99.90;;;;;;5016965;28;20108;-60
2022/02/20 08:35:10;;;;;;;25.35;9.88;;;6.40;99.90;;;;;;5017436;28;20454;-58
2022/02/20 08:37:43;;;;;;;27.08;7.85;;;6.40;99.90;;;;;;5013308;28;20109;-60
2022/02/20 08:40:10;;;;;;;17.83;4.93;;;6.40;99.90;;;;;;5024151;28;20057;-59
2022/02/20 08:42:35;;;;;;;34.42;12.18;;;6.50;99.90;;;;;;5027256;28;20033;-60
2022/02/20 08:45:01;;;;;;;20.75;5.10;;;6.60;99.90;;;;;;5016243;28;20107;-61
2022/02/20 08:47:27;;;;;;;20.40;7.63;;;6.50;99.90;;;;;;5024977;28;20107;-61
2022/02/20 08:49:53;;;;;;;18.00;8.32;;;6.60;99.90;;;;;;5020309;28;20013;-60
2022/02/20 08:52:19;;;;;;;26.52;12.90;;;6.70;99.90;;;;;;5014079;28;20040;-60
2022/02/20 08:54:44;;;;;;;19.08;11.10;;;6.70;99.90;;;;;;5015936;28;20080;-61
2022/02/20 08:57:10;;;;;;;23.45;8.25;;;6.70;99.90;;;;;;5015619;28;20045;-61
2022/02/20 08:59:36;;;;;;;21.95;9.80;;;6.70;99.90;;;;;;5018686;28;20029;-60
2022/02/20 09:02:03;;;;;;;65.13;24.67;;;6.80;99.90;;;;;;5026112;28;20042;-60
2022/02/20 09:04:29;;;;;;;54.67;20.27;;;6.90;99.90;;;;;;5001478;28;20129;-61
2022/02/20 09:06:55;;;;;;;30.80;11.70;;;6.90;99.90;;;;;;5018555;28;20104;-61
2022/02/20 09:09:21;;;;;;;11.43;3.70;;;7.00;99.90;;;;;;5021707;28;20074;-61
2022/02/20 09:11:47;;;;;;;15.82;5.45;;;7.00;99.90;;;;;;5030113;28;20463;-60
2022/02/20 09:14:12;;;;;;;9.60;3.60;;;7.10;99.90;;;;;;5022341;28;20034;-61
2022/02/20 09:16:38;;;;;;;9.10;2.50;;;7.10;99.90;;;;;;5025088;28;20084;-60
2022/02/20 09:19:05;;;;;;;8.52;4.15;;;7.20;99.90;;;;;;5028856;28;21073;-58
2022/02/20 09:21:31;;;;;;;10.15;4.38;;;7.30;99.90;;;;;;5026962;28;20029;-61
2022/02/20 09:23:57;;;;;;;21.60;11.05;;;7.40;99.90;;;;;;5018677;28;20033;-61
2022/02/20 09:26:22;;;;;;;4.72;2.38;;;7.40;99.90;;;;;;5023459;28;20636;-61
2022/02/20 09:28:48;;;;;;;9.63;5.38;;;7.50;99.90;;;;;;5020806;28;20033;-61
2022/02/20 09:31:14;;;;;;;11.68;5.68;;;7.50;99.90;;;;;;5019526;28;20034;-60
2022/02/20 09:33:40;;;;;;;10.07;4.95;;;7.60;99.90;;;;;;5020416;28;20029;-59
2022/02/20 09:36:07;;;;;;;9.35;5.32;;;7.60;99.90;;;;;;5022931;28;20034;-61
2022/02/20 09:38:33;;;;;;;12.23;7.70;;;7.70;99.90;;;;;;5019628;28;20029;-61
2022/02/20 09:40:59;;;;;;;4.82;2.33;;;7.70;99.90;;;;;;5024897;28;20434;-61
2022/02/20 09:43:25;;;;;;;6.97;2.63;;;7.70;99.90;;;;;;5020725;28;20041;-61
2022/02/20 09:45:53;;;;;;;5.00;2.58;;;7.80;99.90;;;;;;5018627;28;20036;-60
2022/02/20 09:48:19;;;;;;;9.15;4.28;;;7.80;99.90;;;;;;5019817;28;20492;-60
2022/02/20 09:50:45;;;;;;;15.95;7.47;;;7.90;99.90;;;;;;5015978;28;20150;-60
2022/02/20 09:53:12;;;;;;;12.23;5.85;;;7.90;99.90;;;;;;5025345;28;20060;-61
2022/02/20 09:55:38;;;;;;;16.02;6.25;;;7.90;99.90;;;;;;5020273;28;20513;-60
2022/02/20 09:58:03;;;;;;;15.50;6.97;;;7.90;99.90;;;;;;5027393;28;20149;-59
2022/02/20 10:00:29;;;;;;;17.35;7.82;;;8.00;99.90;;;;;;5019363;28;20037;-61
2022/02/20 10:02:55;;;;;;;7.35;3.67;;;8.00;99.90;;;;;;5003812;28;20530;-60
2022/02/20 10:05:22;;;;;;;26.52;12.70;;;8.00;99.90;;;;;;5017694;28;20037;-60
2022/02/20 10:07:50;;;;;;;17.85;8.25;;;8.10;99.90;;;;;;5015561;28;20057;-59
2022/02/20 10:10:27;;;;;;;27.23;11.50;;;8.00;99.90;;;;;;5019537;28;20042;-61
2022/02/20 10:13:22;;;;;;;41.15;17.83;;;8.10;99.90;;;;;;5013912;28;20037;-60
2022/02/20 10:15:48;;;;;;;21.63;10.43;;;8.10;99.90;;;;;;5015834;28;20488;-57
2022/02/20 10:18:19;;;;;;;9.82;4.80;;;8.10;99.90;;;;;;5026340;28;20033;-61
2022/02/20 10:20:47;;;;;;;4.80;2.42;;;8.10;99.90;;;;;;5017131;28;20395;-61
2022/02/20 10:23:14;;;;;;;2.53;1.40;;;8.20;99.90;;;;;;5022764;28;20025;-61
2022/02/20 10:25:44;;;;;;;4.15;2.00;;;8.20;99.90;;;;;;5015071;28;20504;-61
2022/02/20 10:28:11;;;;;;;2.45;1.60;;;8.20;99.90;;;;;;5019317;28;20029;-60
2022/02/20 10:30:38;;;;;;;5.95;3.47;;;8.20;99.90;;;;;;5025997;28;20029;-61
2022/02/20 10:33:16;;;;;;;5.03;2.70;;;8.30;99.90;;;;;;5020596;28;20127;-61
2022/02/20 10:35:50;;;;;;;5.53;2.38;;;8.30;99.90;;;;;;5021818;28;20037;-61
2022/02/20 10:38:18;;;;;;;4.03;1.88;;;8.40;99.90;;;;;;5022188;28;20034;-61
2022/02/20 10:40:47;;;;;;;6.75;3.45;;;8.40;99.90;;;;;;5021927;28;20065;-61
2022/02/20 10:43:42;;;;;;;7.18;2.92;;;8.50;99.90;;;;;;5017351;28;20029;-61
2022/02/20 10:46:13;;;;;;;6.85;3.50;;;8.60;99.90;;;;;;5004445;28;20040;-60
2022/02/20 10:48:50;;;;;;;23.23;11.23;;;8.60;99.90;;;;;;5015540;28;20075;-61
2022/02/20 10:51:19;;;;;;;36.78;16.60;;;8.70;99.90;;;;;;5017837;28;20040;-61
2022/02/20 10:53:48;;;;;;;30.33;10.75;;;8.80;99.90;;;;;;5013355;28;20546;-61
2022/02/20 10:56:14;;;;;;;37.25;13.00;;;8.80;99.90;;;;;;5019511;28;20061;-61
2022/02/20 10:58:45;;;;;;;58.80;20.67;;;8.90;99.90;;;;;;5030254;28;20072;-61
2022/02/20 11:01:23;;;;;;;11.23;5.03;;;8.90;99.90;;;;;;5016339;28;20055;-61
2022/02/20 11:03:49;;;;;;;17.65;7.00;;;8.90;99.90;;;;;;5021161;28;20670;-62
2022/02/20 11:06:17;;;;;;;68.50;26.95;;;8.90;99.90;;;;;;5038985;28;20029;-61
2022/02/20 11:08:42;;;;;;;12.48;4.40;;;8.90;99.90;;;;;;5038346;28;20045;-58
2022/02/20 11:11:36;;;;;;;27.08;9.23;;;9.00;99.90;;;;;;5030819;28;20021;-61
2022/02/20 11:13:55;;;;;;;6.80;0.95;;;9.00;99.90;;;;;;5049578;28;20138;-61
2022/02/20 11:16:22;;;;;;;21.88;10.63;;;9.00;99.90;;;;;;5043289;28;20518;-61
2022/02/20 11:18:53;;;;;;;13.52;3.70;;;9.00;99.90;;;;;;5047736;28;20033;-61
2022/02/20 11:21:19;;;;;;;21.15;9.23;;;9.10;99.90;;;;;;5035641;28;20029;-58
2022/02/20 11:23:46;;;;;;;28.77;13.13;;;9.10;99.90;;;;;;5037348;28;20112;-61
2022/02/20 11:26:13;;;;;;;33.25;15.70;;;9.10;99.90;;;;;;5035293;28;20097;-62
2022/02/20 11:28:39;;;;;;;11.23;5.03;;;9.10;99.90;;;;;;5033104;28;20112;-61
2022/02/20 11:31:07;;;;;;;5.90;2.72;;;9.10;99.90;;;;;;5030390;28;20112;-61
2022/02/20 11:33:33;;;;;;;7.57;2.90;;;9.10;99.90;;;;;;5034560;28;20033;-62
2022/02/20 11:35:59;;;;;;;13.32;5.85;;;9.10;99.90;;;;;;5035334;28;20025;-61
2022/02/20 11:38:25;;;;;;;24.95;12.55;;;9.10;99.90;;;;;;5041721;28;20033;-61
2022/02/20 11:41:07;;;;;;;12.60;5.95;;;9.10;99.90;;;;;;5031640;28;20041;-61
2022/02/20 11:44:19;;;;;;;7.60;3.70;;;9.10;99.90;;;;;;5034567;28;20390;-58
2022/02/20 11:46:52;;;;;;;8.73;3.90;;;9.20;99.90;;;;;;5021091;28;20038;-59
2022/02/20 11:49:29;;;;;;;21.05;9.75;;;9.20;99.90;;;;;;5040287;28;20397;-57
2022/02/20 11:52:05;;;;;;;8.30;4.00;;;9.20;99.90;;;;;;5036919;28;20025;-59
2022/02/20 11:54:36;;;;;;;4.93;2.00;;;9.20;99.90;;;;;;5044950;28;20032;-59
2022/02/20 11:57:18;;;;;;;9.65;5.75;;;9.20;99.90;;;;;;5049580;28;20029;-59
2022/02/20 12:00:06;;;;;;;6.55;3.20;;;9.20;99.90;;;;;;5036620;28;20051;-58
2022/02/20 12:02:32;;;;;;;2.40;1.02;;;9.30;99.90;;;;;;5038255;28;20014;-59
2022/02/20 12:04:57;;;;;;;3.20;1.20;;;9.40;99.90;;;;;;5020041;28;20041;-59
2022/02/20 12:07:37;;;;;;;2.95;1.20;;;9.40;99.90;;;;;;5038877;28;20036;-60
2022/02/20 12:10:22;;;;;;;3.28;1.20;;;9.50;99.90;;;;;;5036391;28;20052;-60
2022/02/20 12:12:53;;;;;;;10.20;4.40;;;9.60;99.90;;;;;;5037463;28;20026;-59
2022/02/20 12:15:39;;;;;;;8.10;2.90;;;9.60;99.90;;;;;;5045190;28;20029;-56
2022/02/20 12:18:10;;;;;;;36.63;12.20;;;9.60;99.90;;;;;;5039177;28;20036;-61
2022/02/20 12:20:51;;;;;;;32.95;9.38;;;9.50;99.90;;;;;;5040659;28;20103;-61
2022/02/20 12:23:35;;;;;;;53.50;17.92;;;9.50;99.90;;;;;;5037018;28;20017;-57
2022/02/20 12:26:20;;;;;;;41.67;17.20;;;9.50;99.90;;;;;;5034404;28;20022;-59
2022/02/20 12:28:46;;;;;;;49.08;19.52;;;9.50;99.90;;;;;;5033520;28;20495;-60
2022/02/20 12:31:14;;;;;;;28.17;11.18;;;9.50;99.90;;;;;;5031909;28;20181;-61
2022/02/20 12:33:49;;;;;;;42.13;16.20;;;9.50;99.90;;;;;;5041975;28;20075;-61
2022/02/20 12:36:29;;;;;;;15.35;5.80;;;9.50;99.90;;;;;;5037785;28;20108;-61
2022/02/20 12:38:56;;;;;;;10.82;5.72;;;9.50;99.90;;;;;;5039843;28;20033;-60
2022/02/20 12:41:22;;;;;;;12.15;4.07;;;9.50;99.90;;;;;;5041576;28;20075;-60
2022/02/20 12:43:51;;;;;;;8.15;2.95;;;9.40;99.90;;;;;;5047508;28;20414;-60
2022/02/20 12:46:16;;;;;;;7.95;4.95;;;9.40;99.90;;;;;;5047206;28;20027;-60
2022/02/20 12:48:42;;;;;;;8.95;3.65;;;9.40;99.90;;;;;;5040079;28;20029;-60